EGJA/ACI METAR and TAF weather

Enter ICAO airport designator
Station Type Date Time Source
EGJA METAR 2023/01/30 10:50 UTC NOAA

EGJA 301050Z 34013KT 9999 FEW032 09/04 Q1028


Station Type Date Time Source
EGJA Decoded METAR 2023/01/30 10:50 UTC NOAA

Alderney / Channel Island, United Kingdom (EGJA) 49-43N 002-12W
Jan 30, 2023 - 05:50 AM EST / 2023.01.30 1050 UTC
Wind: from the NNW (340 degrees) at 15 MPH (13 KT):0
Visibility: greater than 7 mile(s):0
Sky conditions: mostly clear
Temperature: 48 F (9 C)
Dew Point: 39 F (4 C)
Relative Humidity: 70%
Pressure (altimeter): 30.36 in. Hg (1028 hPa)
ob: EGJA 301050Z 34013KT 9999 FEW032 09/04 Q1028
cycle: 11

Station Type Date Time Source
EGJA TAF UTC NOAA

Error!

Example: see airport list